Time;durP1;ratioP1;P1;durP2;ratioP2;P2;SDS_P1;SDS_P2;PMS_P1;PMS_P2;Temp;Humidity;BMP_temperature;BMP_pressure;BME280_temperature;BME280_humidity;BME280_pressure;Samples;Min_cycle;Max_cycle;Signal;HPM_P1;HPM_P2
2022/04/19 00:00:45;;;;;;;4.63;3.97;;;11.00;99.90;;;;;;5062752;28;20402;-80
2022/04/19 00:03:29;;;;;;;4.13;3.83;;;11.00;99.90;;;;;;5062230;28;20481;-81
2022/04/19 00:06:14;;;;;;;3.87;3.50;;;11.00;99.90;;;;;;5062985;28;20422;-80
2022/04/19 00:08:58;;;;;;;4.30;3.60;;;10.90;99.90;;;;;;5063412;28;20386;-80
2022/04/19 00:11:42;;;;;;;3.73;3.43;;;10.80;99.90;;;;;;5062108;28;20422;-80
2022/04/19 00:14:27;;;;;;;4.33;3.20;;;10.70;99.90;;;;;;5062772;28;20815;-80
2022/04/19 00:17:12;;;;;;;5.80;3.77;;;10.70;99.90;;;;;;5062214;28;20390;-81
2022/04/19 00:19:56;;;;;;;5.67;3.37;;;10.60;99.90;;;;;;5062813;28;20405;-81
2022/04/19 00:22:41;;;;;;;4.60;4.10;;;10.60;99.90;;;;;;5048291;28;20496;-80
2022/04/19 00:25:26;;;;;;;5.63;4.00;;;10.70;99.90;;;;;;5062720;28;20401;-80
2022/04/19 00:28:12;;;;;;;4.73;3.80;;;10.80;99.90;;;;;;5047295;28;20422;-80
2022/04/19 00:30:57;;;;;;;4.97;4.03;;;10.80;99.90;;;;;;5062373;28;20394;-81
2022/04/19 00:33:44;;;;;;;6.60;3.50;;;10.80;99.90;;;;;;5061906;28;20448;-80
2022/04/19 00:36:28;;;;;;;4.50;4.10;;;10.80;99.90;;;;;;5062231;28;20397;-80
2022/04/19 00:39:13;;;;;;;6.63;4.33;;;10.70;99.90;;;;;;5061999;28;20394;-81
2022/04/19 00:41:58;;;;;;;4.00;3.60;;;10.70;99.90;;;;;;5046579;28;20390;-81
2022/04/19 00:44:42;;;;;;;4.40;4.00;;;10.70;99.90;;;;;;5062022;28;20750;-80
2022/04/19 00:47:27;;;;;;;5.37;3.43;;;10.70;99.90;;;;;;5061029;28;20482;-81
2022/04/19 00:50:11;;;;;;;5.33;4.17;;;10.70;99.90;;;;;;5046700;28;20729;-79
2022/04/19 00:52:57;;;;;;;4.00;3.70;;;10.60;99.90;;;;;;5046341;28;20394;-80
2022/04/19 00:55:42;;;;;;;4.87;4.40;;;10.60;99.90;;;;;;5061387;28;20430;-81
2022/04/19 00:58:27;;;;;;;4.57;4.17;;;10.50;99.90;;;;;;5061295;28;20401;-81
2022/04/19 01:01:13;;;;;;;4.97;4.33;;;10.50;99.90;;;;;;5060996;28;20762;-81
2022/04/19 01:03:58;;;;;;;4.90;4.40;;;10.40;99.90;;;;;;5060558;28;20522;-80
2022/04/19 01:06:42;;;;;;;6.30;4.50;;;10.40;99.90;;;;;;5061551;28;20440;-80
2022/04/19 01:09:27;;;;;;;6.73;4.70;;;10.40;99.90;;;;;;5045441;28;20382;-81
2022/04/19 01:15:11;;;;;;;4.23;3.83;;;10.40;99.90;;;;;;5060538;28;20409;-81
2022/04/19 01:17:57;;;;;;;15.10;5.03;;;10.40;99.90;;;;;;5060873;28;20401;-81
2022/04/19 01:20:42;;;;;;;5.30;4.20;;;10.20;99.90;;;;;;5061169;28;20882;-81
2022/04/19 01:23:28;;;;;;;8.30;4.67;;;10.10;99.90;;;;;;5060419;28;20472;-80
2022/04/19 01:26:13;;;;;;;5.83;4.07;;;10.10;99.90;;;;;;5046155;28;20405;-80
2022/04/19 01:28:57;;;;;;;7.57;4.93;;;10.10;99.90;;;;;;5060482;28;20398;-81
2022/04/19 01:31:45;;;;;;;4.50;4.10;;;10.00;99.90;;;;;;5060450;28;20409;-81
2022/04/19 01:34:31;;;;;;;4.23;3.90;;;10.00;99.90;;;;;;5060872;28;20456;-80
2022/04/19 01:37:17;;;;;;;3.73;3.43;;;10.00;99.90;;;;;;5061014;28;20393;-80
2022/04/19 01:43:03;;;;;;;5.07;4.33;;;9.90;99.90;;;;;;5060362;28;20449;-81
2022/04/19 01:45:47;;;;;;;6.53;4.13;;;9.80;99.90;;;;;;5060120;28;20454;-81
2022/04/19 01:48:33;;;;;;;6.00;4.17;;;9.70;99.90;;;;;;5061058;28;20389;-80
2022/04/19 01:51:17;;;;;;;7.80;4.40;;;9.60;99.90;;;;;;5060483;28;20401;-81
2022/04/19 01:54:02;;;;;;;5.50;4.03;;;9.60;99.90;;;;;;5060249;28;20397;-81
2022/04/19 01:56:48;;;;;;;4.50;4.10;;;9.60;99.90;;;;;;5045385;28;20483;-81
2022/04/19 01:59:32;;;;;;;3.97;3.43;;;9.50;99.90;;;;;;5060740;28;20393;-80
2022/04/19 02:02:17;;;;;;;6.33;4.47;;;9.50;99.90;;;;;;5049935;28;20512;-80
2022/04/19 02:05:02;;;;;;;5.30;4.53;;;9.50;99.90;;;;;;5071602;28;20374;-79
2022/04/19 02:07:47;;;;;;;5.73;4.50;;;9.50;99.90;;;;;;5073600;28;20432;-79
2022/04/19 02:10:32;;;;;;;4.17;3.70;;;9.50;99.90;;;;;;5070665;28;20424;-79
2022/04/19 02:13:17;;;;;;;3.93;3.53;;;9.50;99.90;;;;;;5071248;28;20401;-78
2022/04/19 02:16:04;;;;;;;6.70;4.67;;;9.50;99.90;;;;;;5070976;28;20410;-80
2022/04/19 02:18:49;;;;;;;3.30;3.00;;;9.50;99.90;;;;;;5067586;28;20560;-80
2022/04/19 02:21:34;;;;;;;5.47;4.67;;;9.40;99.90;;;;;;5066677;28;20416;-80
2022/04/19 02:24:19;;;;;;;7.63;4.70;;;9.30;99.90;;;;;;5063203;28;20508;-80
2022/04/19 02:27:05;;;;;;;4.20;3.40;;;9.30;99.90;;;;;;5049122;28;20494;-80
2022/04/19 02:29:50;;;;;;;4.83;3.93;;;9.10;99.90;;;;;;5066497;28;20747;-80
2022/04/19 02:32:35;;;;;;;5.90;3.97;;;9.10;99.90;;;;;;5067040;28;20382;-80
2022/04/19 02:35:23;;;;;;;6.73;3.83;;;8.70;99.90;;;;;;5066700;28;20401;-81
2022/04/19 02:38:09;;;;;;;3.73;3.43;;;8.70;99.90;;;;;;5066707;28;20386;-80
2022/04/19 02:40:54;;;;;;;7.40;4.47;;;8.80;99.90;;;;;;5063225;28;20406;-80
2022/04/19 02:43:38;;;;;;;5.10;3.70;;;9.00;99.90;;;;;;5060448;28;20828;-80
2022/04/19 02:46:23;;;;;;;5.13;4.60;;;9.00;99.90;;;;;;5060801;28;20426;-81
2022/04/19 02:49:08;;;;;;;4.70;4.00;;;9.00;99.90;;;;;;5061230;28;20731;-81
2022/04/19 02:51:55;;;;;;;3.73;3.37;;;9.00;99.90;;;;;;5045309;28;20451;-81
2022/04/19 02:54:39;;;;;;;4.23;3.83;;;9.00;99.90;;;;;;5045423;28;20448;-81
2022/04/19 02:57:26;;;;;;;4.90;4.43;;;9.10;99.90;;;;;;5045553;28;20421;-81
2022/04/19 03:00:11;;;;;;;4.83;4.33;;;9.10;99.90;;;;;;5047242;28;20397;-80
2022/04/19 03:02:56;;;;;;;3.90;3.60;;;9.10;99.90;;;;;;5062767;28;20508;-80
2022/04/19 03:05:41;;;;;;;4.23;3.83;;;9.00;99.90;;;;;;5064479;28;20478;-81
2022/04/19 03:08:26;;;;;;;7.10;4.40;;;8.90;99.90;;;;;;5059818;28;20389;-80
2022/04/19 03:11:12;;;;;;;6.90;3.60;;;8.90;99.90;;;;;;5063095;28;20405;-81
2022/04/19 03:13:56;;;;;;;4.70;4.30;;;8.80;99.90;;;;;;5063364;28;20854;-80
2022/04/19 03:16:41;;;;;;;5.63;4.30;;;8.80;99.90;;;;;;5063763;28;20406;-81
2022/04/19 03:19:25;;;;;;;5.37;4.77;;;8.80;99.90;;;;;;5064251;28;20421;-81
2022/04/19 03:22:10;;;;;;;6.00;4.17;;;8.80;99.90;;;;;;5063626;28;20424;-80
2022/04/19 03:27:54;;;;;;;6.97;4.07;;;8.60;99.90;;;;;;5050338;28;20383;-80
2022/04/19 03:30:39;;;;;;;5.07;4.40;;;8.50;99.90;;;;;;5063304;28;20467;-80
2022/04/19 03:33:24;;;;;;;18.17;3.87;;;8.50;99.90;;;;;;5062871;28;20798;-80
2022/04/19 03:36:10;;;;;;;3.67;3.37;;;8.50;99.90;;;;;;5062872;28;20456;-81
2022/04/19 03:38:54;;;;;;;6.67;4.17;;;8.50;99.90;;;;;;5063576;28;20508;-81
2022/04/19 03:41:40;;;;;;;9.50;4.57;;;8.50;99.90;;;;;;5062618;28;20406;-80
2022/04/19 03:44:29;;;;;;;9.03;3.40;;;8.40;99.90;;;;;;5064005;28;20449;-80
2022/04/19 03:47:15;;;;;;;5.70;4.50;;;8.50;99.90;;;;;;5076382;28;20804;-80
2022/04/19 03:50:00;;;;;;;5.13;3.63;;;8.50;99.90;;;;;;5081104;28;20389;-81
2022/04/19 03:52:44;;;;;;;4.40;4.00;;;8.30;99.90;;;;;;5089078;28;20966;-80
2022/04/19 03:55:29;;;;;;;4.00;3.67;;;8.10;99.90;;;;;;5071851;28;20429;-80
2022/04/19 03:58:15;;;;;;;5.03;3.47;;;8.20;99.90;;;;;;5085866;28;20435;-80
2022/04/19 04:01:00;;;;;;;5.40;4.50;;;8.20;99.90;;;;;;5086909;28;20507;-80
2022/04/19 04:03:47;;;;;;;4.93;4.13;;;8.20;99.90;;;;;;5086560;28;20476;-81
2022/04/19 04:06:31;;;;;;;6.43;4.70;;;8.20;99.90;;;;;;5085069;28;20415;-80
2022/04/19 04:09:15;;;;;;;3.07;2.83;;;8.20;99.90;;;;;;5086807;28;20788;-80
2022/04/19 04:12:03;;;;;;;7.77;4.40;;;8.20;99.90;;;;;;5085771;28;20389;-80
2022/04/19 04:14:47;;;;;;;5.53;4.70;;;8.30;99.90;;;;;;5087074;28;20504;-80
2022/04/19 04:17:32;;;;;;;5.93;4.77;;;8.30;99.90;;;;;;5086206;28;20481;-80
2022/04/19 04:20:18;;;;;;;4.77;4.30;;;8.30;99.90;;;;;;5083903;28;20443;-80
2022/04/19 04:23:03;;;;;;;4.83;3.83;;;8.30;99.90;;;;;;5086387;28;20512;-80
2022/04/19 04:25:47;;;;;;;7.30;3.87;;;8.30;99.90;;;;;;5082135;28;20466;-80
2022/04/19 04:28:32;;;;;;;5.77;5.10;;;8.30;99.90;;;;;;5081896;28;20424;-80
2022/04/19 04:31:17;;;;;;;5.47;4.23;;;8.20;99.90;;;;;;5082430;28;20392;-80
2022/04/19 04:34:02;;;;;;;7.00;4.93;;;8.20;99.90;;;;;;5082095;28;20470;-80
2022/04/19 04:36:46;;;;;;;4.27;3.80;;;8.20;99.90;;;;;;5082022;28;20403;-80
2022/04/19 04:39:31;;;;;;;4.27;3.40;;;8.20;99.90;;;;;;5082180;28;20447;-81
2022/04/19 04:42:16;;;;;;;4.23;3.67;;;8.10;99.90;;;;;;5082118;28;20440;-81
2022/04/19 04:45:00;;;;;;;4.47;4.07;;;8.20;99.90;;;;;;5082177;28;20880;-81
2022/04/19 04:50:48;;;;;;;5.00;4.07;;;8.20;99.90;;;;;;5082054;28;20753;-80
2022/04/19 04:53:33;;;;;;;5.70;4.30;;;8.20;99.90;;;;;;5081813;28;20445;-81
2022/04/19 04:56:17;;;;;;;6.90;4.67;;;8.20;99.90;;;;;;5080272;28;20424;-81
2022/04/19 04:59:02;;;;;;;7.03;5.07;;;8.20;99.90;;;;;;5080820;28;20397;-80
2022/04/19 05:01:47;;;;;;;4.63;4.13;;;8.10;99.90;;;;;;5077538;28;20413;-81
2022/04/19 05:04:33;;;;;;;5.10;4.60;;;8.10;99.90;;;;;;5081902;28;20463;-81
2022/04/19 05:07:18;;;;;;;5.73;3.90;;;8.10;99.90;;;;;;5080451;28;20743;-81
2022/04/19 05:10:02;;;;;;;14.43;4.67;;;8.10;99.90;;;;;;5080854;28;20420;-81
2022/04/19 05:12:47;;;;;;;5.60;4.07;;;8.20;99.90;;;;;;5081210;28;20452;-81
2022/04/19 05:15:32;;;;;;;3.30;3.00;;;8.30;99.90;;;;;;5080624;28;20501;-81
2022/04/19 05:18:16;;;;;;;5.50;4.97;;;8.40;99.90;;;;;;5080642;28;20448;-81
2022/04/19 05:21:02;;;;;;;10.20;3.70;;;8.50;99.90;;;;;;5079522;28;20503;-81
2022/04/19 05:23:46;;;;;;;3.20;2.90;;;8.40;99.90;;;;;;5083686;28;20482;-81
2022/04/19 05:26:31;;;;;;;7.37;4.30;;;8.40;99.90;;;;;;5085393;28;20455;-81
2022/04/19 05:29:16;;;;;;;4.83;4.40;;;8.40;99.90;;;;;;5086441;28;20404;-80
2022/04/19 05:32:01;;;;;;;5.03;3.80;;;8.40;99.90;;;;;;5077043;28;20501;-80
2022/04/19 05:34:45;;;;;;;5.80;4.10;;;8.40;99.90;;;;;;5075132;28;20416;-79
2022/04/19 05:37:29;;;;;;;5.00;4.43;;;8.40;99.90;;;;;;5077490;28;20908;-80
2022/04/19 05:40:14;;;;;;;4.13;3.30;;;8.40;99.90;;;;;;5081925;28;20405;-81
2022/04/19 05:42:59;;;;;;;5.33;4.00;;;8.50;99.90;;;;;;5086793;28;20412;-82
2022/04/19 05:45:43;;;;;;;7.20;4.30;;;8.50;99.90;;;;;;5058206;28;20762;-81
2022/04/19 05:48:28;;;;;;;5.40;4.13;;;8.60;99.90;;;;;;5085625;28;20405;-81
2022/04/19 05:51:13;;;;;;;4.27;3.57;;;8.80;99.90;;;;;;5053259;28;20433;-81
2022/04/19 05:53:58;;;;;;;7.10;4.80;;;8.80;99.90;;;;;;5086512;28;20461;-80
2022/04/19 05:56:42;;;;;;;5.77;4.40;;;8.90;99.90;;;;;;5082179;28;20575;-82
2022/04/19 05:59:27;;;;;;;6.03;4.33;;;9.00;99.90;;;;;;5076114;28;20412;-81
2022/04/19 06:05:12;;;;;;;4.27;3.87;;;8.90;99.90;;;;;;5087316;28;20413;-82
2022/04/19 06:07:58;;;;;;;8.33;4.60;;;9.00;99.90;;;;;;5085599;28;20442;-80
2022/04/19 06:10:43;;;;;;;4.37;3.97;;;9.00;99.90;;;;;;5088150;28;20517;-78
2022/04/19 06:13:27;;;;;;;6.40;4.57;;;8.90;99.90;;;;;;5092110;28;20477;-79
2022/04/19 06:16:12;;;;;;;4.50;4.13;;;9.00;99.90;;;;;;5074815;28;20461;-81
2022/04/19 06:18:56;;;;;;;5.00;4.40;;;8.90;99.90;;;;;;5080413;28;20424;-82
2022/04/19 06:21:41;;;;;;;7.27;3.83;;;9.10;99.90;;;;;;5078606;28;20440;-82
2022/04/19 06:24:26;;;;;;;6.80;4.20;;;9.20;99.90;;;;;;5079983;28;20934;-81
2022/04/19 06:27:10;;;;;;;5.40;4.87;;;9.20;99.90;;;;;;5075399;28;20422;-81
2022/04/19 06:29:57;;;;;;;4.70;4.30;;;9.00;99.90;;;;;;5075529;28;20421;-82
2022/04/19 06:32:42;;;;;;;5.00;4.17;;;8.90;99.90;;;;;;5043735;28;20465;-82
2022/04/19 06:35:28;;;;;;;6.30;4.73;;;9.00;99.90;;;;;;5074494;28;20841;-81
2022/04/19 06:38:12;;;;;;;5.60;4.20;;;9.30;99.90;;;;;;5044927;28;20467;-80
2022/04/19 06:40:59;;;;;;;4.67;3.80;;;9.50;99.90;;;;;;5062257;28;20408;-82
2022/04/19 06:43:44;;;;;;;5.63;5.03;;;9.50;99.90;;;;;;5077035;28;20929;-80
2022/04/19 06:46:29;;;;;;;8.20;5.30;;;9.70;99.90;;;;;;5066656;28;20940;-81
2022/04/19 06:49:14;;;;;;;4.60;3.60;;;9.70;99.90;;;;;;5080982;28;20424;-80
2022/04/19 06:52:00;;;;;;;4.27;3.97;;;9.70;99.90;;;;;;5073090;28;20480;-80
2022/04/19 06:54:45;;;;;;;5.90;5.30;;;9.80;99.90;;;;;;5064986;28;20955;-80
2022/04/19 06:57:38;;;;;;;9.73;4.40;;;9.80;99.90;;;;;;5067025;28;20411;-81
2022/04/19 07:00:22;;;;;;;8.03;5.97;;;9.10;99.90;;;;;;5044025;28;20436;-81
2022/04/19 07:03:08;;;;;;;4.73;4.27;;;9.50;99.90;;;;;;5081803;28;20831;-82
2022/04/19 07:05:53;;;;;;;4.43;3.97;;;9.80;99.90;;;;;;5062296;28;20436;-82
2022/04/19 07:08:37;;;;;;;8.00;5.13;;;9.90;99.90;;;;;;5064767;28;20432;-80
2022/04/19 07:11:22;;;;;;;5.97;3.70;;;10.10;99.90;;;;;;5074329;28;20575;-82
2022/04/19 07:14:06;;;;;;;8.30;3.60;;;10.20;99.90;;;;;;5075427;28;20572;-82
2022/04/19 07:16:52;;;;;;;6.70;5.23;;;10.20;99.90;;;;;;5076314;28;20440;-80
2022/04/19 07:28:36;;;;;;;4.50;3.90;;;10.70;99.90;;;;;;5082618;28;20441;-81
2022/04/19 07:31:21;;;;;;;4.43;4.03;;;10.80;99.90;;;;;;5086000;28;20412;-80
2022/04/19 07:34:06;;;;;;;4.87;4.00;;;10.80;99.90;;;;;;5077914;28;20560;-80
2022/04/19 07:36:52;;;;;;;5.20;4.70;;;10.90;99.90;;;;;;5071941;28;20657;-80
2022/04/19 07:39:36;;;;;;;5.93;4.80;;;11.00;99.90;;;;;;5087193;28;20428;-80
2022/04/19 07:42:21;;;;;;;4.77;4.37;;;11.10;99.90;;;;;;5075213;28;20443;-81
2022/04/19 07:45:06;;;;;;;7.10;4.87;;;11.30;99.90;;;;;;5090175;28;20436;-80
2022/04/19 07:47:51;;;;;;;6.30;4.57;;;11.40;99.90;;;;;;5089663;28;20436;-81
2022/04/19 07:50:36;;;;;;;5.70;4.33;;;11.50;99.90;;;;;;5081206;28;20456;-82
2022/04/19 07:53:20;;;;;;;8.13;4.67;;;11.70;99.90;;;;;;5077878;28;20456;-81
2022/04/19 07:56:05;;;;;;;13.40;5.37;;;11.80;99.90;;;;;;5076213;28;20506;-81
2022/04/19 07:58:50;;;;;;;8.43;5.40;;;12.00;99.90;;;;;;5073598;28;20490;-80
2022/04/19 08:01:34;;;;;;;5.70;4.73;;;12.10;99.90;;;;;;5077099;28;20420;-82
2022/04/19 08:04:20;;;;;;;5.73;4.23;;;12.30;99.90;;;;;;5078420;28;20472;-81
2022/04/19 08:07:06;;;;;;;4.50;3.90;;;12.50;99.90;;;;;;5089935;28;20416;-79
2022/04/19 08:09:51;;;;;;;8.27;4.73;;;12.60;99.90;;;;;;5074564;28;20523;-80
2022/04/19 08:12:35;;;;;;;5.97;4.63;;;12.80;99.90;;;;;;5076987;28;20527;-82
2022/04/19 08:15:20;;;;;;;8.20;4.60;;;12.90;99.90;;;;;;5076142;28;20432;-82
2022/04/19 08:18:06;;;;;;;5.40;4.53;;;12.90;99.90;;;;;;5085812;28;20436;-79
2022/04/19 08:20:51;;;;;;;9.90;4.40;;;12.70;99.90;;;;;;5086728;28;20482;-79
2022/04/19 08:23:36;;;;;;;4.90;4.47;;;12.80;99.90;;;;;;5084568;28;20463;-79
2022/04/19 08:26:21;;;;;;;4.40;3.83;;;12.60;99.90;;;;;;5075316;28;20524;-79
2022/04/19 08:29:07;;;;;;;4.50;3.27;;;12.90;99.90;;;;;;5077829;28;20432;-82
2022/04/19 08:31:52;;;;;;;4.43;3.70;;;13.20;99.90;;;;;;5076023;28;20432;-82
2022/04/19 08:34:38;;;;;;;6.70;4.30;;;13.40;99.90;;;;;;5069921;28;20851;-82
2022/04/19 08:37:22;;;;;;;6.57;3.13;;;13.40;99.90;;;;;;5029848;28;20491;-82
2022/04/19 08:40:10;;;;;;;9.17;3.90;;;13.50;99.90;;;;;;5073192;28;20502;-81
2022/04/19 08:42:57;;;;;;;4.70;4.27;;;13.40;99.90;;;;;;5075971;28;20939;-82
2022/04/19 08:45:43;;;;;;;9.73;4.40;;;13.50;99.90;;;;;;5075930;28;20489;-81
2022/04/19 08:48:27;;;;;;;6.20;4.23;;;13.60;99.90;;;;;;5059364;28;20431;-82
2022/04/19 08:51:14;;;;;;;4.03;3.70;;;13.70;99.90;;;;;;5075387;28;20428;-82
2022/04/19 09:00:06;;;;;;;4.37;3.27;;;14.00;99.90;;;;;;5038859;28;20475;-80
2022/04/19 09:02:51;;;;;;;5.03;3.60;;;14.10;99.90;;;;;;5035284;28;20585;-81
2022/04/19 09:05:49;;;;;;;4.13;3.17;;;14.10;99.90;;;;;;5030711;28;20462;-82
2022/04/19 09:08:35;;;;;;;4.73;4.20;;;14.20;99.90;;;;;;5029969;28;20454;-81
2022/04/19 09:11:34;;;;;;;5.30;3.90;;;14.20;99.90;;;;;;5031971;28;20466;-82
2022/04/19 09:14:18;;;;;;;4.20;2.97;;;14.20;99.90;;;;;;5020053;28;20470;-82
2022/04/19 09:17:08;;;;;;;5.53;3.90;;;14.30;99.90;;;;;;5033674;28;20749;-83
2022/04/19 09:20:07;;;;;;;4.73;4.03;;;14.30;99.90;;;;;;5033503;28;20831;-80
2022/04/19 09:23:02;;;;;;;6.13;3.47;;;14.40;99.90;;;;;;5033848;28;21013;-80
2022/04/19 09:25:52;;;;;;;4.47;3.87;;;14.40;99.90;;;;;;5020379;28;20509;-83
2022/04/19 09:28:38;;;;;;;4.47;3.60;;;14.60;99.90;;;;;;5035312;28;20487;-81
2022/04/19 09:31:30;;;;;;;6.93;3.80;;;14.50;99.90;;;;;;5016942;28;20458;-80
2022/04/19 09:34:33;;;;;;;4.20;3.90;;;14.70;99.90;;;;;;5051130;28;20472;-82
2022/04/19 09:37:18;;;;;;;9.23;3.80;;;14.40;99.90;;;;;;5055778;28;20444;-81
2022/04/19 09:40:03;;;;;;;4.60;4.20;;;14.20;99.90;;;;;;5053608;28;20419;-80
2022/04/19 09:42:54;;;;;;;4.43;4.00;;;14.40;99.90;;;;;;5051387;28;20438;-81
2022/04/19 09:45:56;;;;;;;5.27;3.37;;;14.90;99.90;;;;;;5056998;28;20437;-80
2022/04/19 09:48:41;;;;;;;3.90;3.60;;;14.90;99.90;;;;;;5056522;28;20460;-82
2022/04/19 09:51:34;;;;;;;3.73;3.43;;;15.10;99.90;;;;;;5052200;28;20429;-80
2022/04/19 09:54:22;;;;;;;3.73;2.90;;;15.00;99.90;;;;;;5053197;28;20469;-81
2022/04/19 09:57:09;;;;;;;4.53;3.43;;;14.60;99.90;;;;;;5056653;28;20422;-80
2022/04/19 09:59:58;;;;;;;3.47;3.13;;;14.80;99.90;;;;;;5051199;28;20437;-82
2022/04/19 10:08:48;;;;;;;3.33;2.57;;;15.70;99.90;;;;;;5053227;28;20432;-82
2022/04/19 10:11:32;;;;;;;2.90;2.70;;;15.40;99.90;;;;;;5067239;28;20563;-81
2022/04/19 10:14:19;;;;;;;3.03;2.73;;;15.90;99.50;;;;;;5044957;28;20529;-83
2022/04/19 10:17:05;;;;;;;4.10;3.17;;;16.10;99.40;;;;;;5056964;28;20444;-80
2022/04/19 10:19:50;;;;;;;4.03;2.47;;;16.40;99.90;;;;;;5050138;28;20522;-82
2022/04/19 10:22:35;;;;;;;5.63;2.83;;;16.90;99.90;;;;;;5080259;28;20783;-82
2022/04/19 10:25:20;;;;;;;2.53;2.33;;;17.30;96.90;;;;;;5079508;28;20484;-81
2022/04/19 10:28:05;;;;;;;3.73;2.60;;;17.20;93.90;;;;;;5075220;28;20785;-82
2022/04/19 10:30:52;;;;;;;3.13;2.77;;;17.50;95.70;;;;;;5048077;28;20432;-82
2022/04/19 10:33:45;;;;;;;3.70;3.40;;;16.70;93.80;;;;;;5069526;28;20589;-78
2022/04/19 10:36:37;;;;;;;3.40;2.10;;;17.20;95.60;;;;;;5079671;28;20428;-84
2022/04/19 10:39:25;;;;;;;4.23;2.70;;;16.80;91.50;;;;;;5067540;28;20451;-80
2022/04/19 10:42:33;;;;;;;3.07;2.80;;;17.00;92.80;;;;;;5047550;28;20967;-82
2022/04/19 10:45:20;;;;;;;2.90;2.47;;;17.80;92.70;;;;;;5059232;28;20960;-81
2022/04/19 10:48:06;;;;;;;5.20;2.50;;;18.50;89.60;;;;;;5040061;28;20490;-82
2022/04/19 10:50:51;;;;;;;5.13;2.40;;;18.70;86.80;;;;;;5049870;28;20440;-83
2022/04/19 10:53:36;;;;;;;2.33;2.13;;;19.00;85.80;;;;;;5072364;28;20474;-81
2022/04/19 10:56:21;;;;;;;1.80;1.70;;;19.30;86.10;;;;;;5053841;28;20456;-80
2022/04/19 10:59:20;;;;;;;1.97;1.87;;;19.70;80.10;;;;;;5074543;28;20853;-83
2022/04/19 11:02:39;;;;;;;2.23;2.03;;;19.80;76.50;;;;;;5029694;28;20555;-82
2022/04/19 11:05:41;;;;;;;1.70;1.60;;;18.90;72.00;;;;;;5034397;28;20490;-83
2022/04/19 11:08:36;;;;;;;2.30;1.90;;;19.20;74.20;;;;;;5034515;28;20426;-82
2022/04/19 11:11:44;;;;;;;2.33;2.13;;;18.80;66.40;;;;;;5032943;28;20443;-82
2022/04/19 11:14:40;;;;;;;3.50;2.00;;;18.10;70.20;;;;;;4937853;28;20443;-82
2022/04/19 11:17:27;;;;;;;2.17;1.80;;;19.00;75.00;;;;;;4971949;28;20480;-81
2022/04/19 11:20:17;;;;;;;1.67;1.57;;;20.60;69.60;;;;;;4982010;28;20488;-83
2022/04/19 11:23:18;;;;;;;1.70;1.60;;;21.60;68.20;;;;;;4962537;28;20467;-81
2022/04/19 11:26:04;;;;;;;5.80;2.90;;;22.00;65.50;;;;;;4982489;28;20539;-81
2022/04/19 11:29:18;;;;;;;2.10;1.90;;;22.40;62.30;;;;;;4973080;28;20552;-83
2022/04/19 11:32:06;;;;;;;1.60;1.50;;;22.80;62.60;;;;;;4994412;28;20512;-84
2022/04/19 11:35:01;;;;;;;7.67;1.80;;;22.90;60.60;;;;;;5011717;28;20438;-84
2022/04/19 11:37:46;;;;;;;2.00;1.80;;;23.30;57.10;;;;;;5004235;28;20541;-83
2022/04/19 11:46:50;;;;;;;1.80;1.70;;;23.50;56.80;;;;;;5065721;28;20448;-83
2022/04/19 11:49:36;;;;;;;3.43;1.80;;;23.80;55.80;;;;;;5065422;28;20420;-84
2022/04/19 11:52:20;;;;;;;1.43;1.33;;;24.50;54.60;;;;;;5066008;28;20427;-84
2022/04/19 11:55:05;;;;;;;1.93;1.83;;;24.30;52.60;;;;;;5081696;28;20620;-83
2022/04/19 11:58:07;;;;;;;3.20;1.50;;;24.30;51.60;;;;;;5050622;28;20447;-84
2022/04/19 12:01:01;;;;;;;1.77;1.67;;;24.90;51.20;;;;;;5079265;28;20500;-86
2022/04/19 12:03:45;;;;;;;1.63;1.53;;;24.30;51.00;;;;;;5042936;28;20587;-85
2022/04/19 12:06:32;;;;;;;1.40;1.30;;;24.30;51.40;;;;;;5087717;28;20428;-83
2022/04/19 12:09:17;;;;;;;2.47;2.27;;;24.90;49.80;;;;;;5066950;28;20442;-84
2022/04/19 12:12:03;;;;;;;2.00;1.90;;;25.30;48.90;;;;;;5081608;28;20441;-83
2022/04/19 12:14:52;;;;;;;1.70;1.60;;;23.80;49.80;;;;;;5080605;28;20544;-84
2022/04/19 12:17:44;;;;;;;1.83;1.70;;;24.20;51.70;;;;;;5081484;28;20520;-83
2022/04/19 12:20:28;;;;;;;2.53;1.70;;;25.00;49.50;;;;;;5078206;28;20840;-83
2022/04/19 12:23:34;;;;;;;1.50;1.40;;;24.90;50.20;;;;;;5046061;28;20535;-83
2022/04/19 12:26:20;;;;;;;1.30;1.20;;;22.90;50.60;;;;;;5055125;28;20421;-86
2022/04/19 12:29:12;;;;;;;2.17;1.63;;;24.40;49.20;;;;;;5037543;28;20448;-85
2022/04/19 12:31:57;;;;;;;1.50;1.40;;;23.80;47.40;;;;;;5045415;28;20451;-85
2022/04/19 12:34:42;;;;;;;4.10;1.53;;;25.10;48.90;;;;;;5046603;28;20425;-83
2022/04/19 12:37:26;;;;;;;1.50;1.40;;;25.50;46.80;;;;;;5058630;28;20492;-84
2022/04/19 12:40:11;;;;;;;1.80;1.70;;;25.50;47.40;;;;;;5052304;28;20440;-84
2022/04/19 12:42:55;;;;;;;1.70;1.60;;;24.80;47.00;;;;;;5027371;28;20553;-84
2022/04/19 12:45:41;;;;;;;2.43;1.70;;;23.70;47.90;;;;;;5027785;28;20436;-85
2022/04/19 12:48:26;;;;;;;2.03;1.93;;;24.40;47.10;;;;;;5057331;28;20456;-83
2022/04/19 12:51:11;;;;;;;3.77;1.67;;;22.30;45.90;;;;;;5057310;28;20444;-84
2022/04/19 12:54:10;;;;;;;2.23;2.03;;;22.10;47.20;;;;;;5049601;28;20436;-83
2022/04/19 12:57:00;;;;;;;1.47;1.37;;;19.50;49.60;;;;;;5063551;28;20520;-83
2022/04/19 12:59:45;;;;;;;2.13;1.43;;;22.30;48.60;;;;;;5065461;28;20578;-85
2022/04/19 13:02:36;;;;;;;1.50;1.40;;;23.70;48.10;;;;;;5063071;28;20694;-83
2022/04/19 13:12:16;;;;;;;1.97;1.77;;;24.70;47.80;;;;;;5082225;28;20486;-84
2022/04/19 13:14:29;;;;;;;2.07;1.97;;;22.10;45.20;;;;;;5053520;28;20530;-83
2022/04/19 13:17:14;;;;;;;2.10;1.80;;;22.80;48.40;;;;;;5066307;28;20471;-84
2022/04/19 13:19:59;;;;;;;2.40;2.20;;;24.80;46.40;;;;;;5076639;28;20532;-79
2022/04/19 13:22:43;;;;;;;4.00;2.27;;;25.70;43.80;;;;;;5082763;28;20420;-81
2022/04/19 13:25:28;;;;;;;2.00;1.90;;;21.80;44.10;;;;;;5083444;28;20451;-78
2022/04/19 13:28:13;;;;;;;2.40;2.20;;;21.50;46.00;;;;;;5080356;28;20432;-80
2022/04/19 13:30:57;;;;;;;3.73;1.80;;;21.70;45.10;;;;;;5081100;28;20474;-81
2022/04/19 13:33:42;;;;;;;2.90;1.93;;;22.10;45.80;;;;;;5064910;28;20431;-81
2022/04/19 13:36:26;;;;;;;2.03;1.77;;;21.70;45.40;;;;;;5081889;28;20440;-80
2022/04/19 13:39:11;;;;;;;2.50;2.30;;;22.90;44.30;;;;;;5082957;28;20466;-79
2022/04/19 13:41:56;;;;;;;4.37;2.03;;;23.10;44.80;;;;;;5064589;28;20439;-81
2022/04/19 13:44:40;;;;;;;2.10;1.87;;;21.90;44.60;;;;;;5074365;28;20491;-81
2022/04/19 13:47:25;;;;;;;2.50;2.30;;;21.20;45.40;;;;;;5076103;28;20544;-78
2022/04/19 13:50:09;;;;;;;3.60;2.40;;;21.70;44.00;;;;;;5074620;28;20497;-81
2022/04/19 13:52:54;;;;;;;2.27;2.13;;;21.20;45.10;;;;;;5058976;28;20482;-81
2022/04/19 13:55:40;;;;;;;3.50;2.00;;;23.30;44.80;;;;;;5070736;28;20467;-81
2022/04/19 13:58:25;;;;;;;2.63;2.20;;;24.00;44.20;;;;;;5077903;28;20436;-84
2022/04/19 14:01:12;;;;;;;2.93;2.30;;;23.20;43.00;;;;;;5065700;28;20555;-83
2022/04/19 14:03:57;;;;;;;2.27;2.17;;;22.10;43.80;;;;;;5077472;28;20574;-83
2022/04/19 14:06:43;;;;;;;1.83;1.67;;;21.80;43.20;;;;;;5064261;28;20482;-83
2022/04/19 14:09:27;;;;;;;2.00;1.87;;;21.70;44.90;;;;;;5082544;28;20878;-84
2022/04/19 14:12:11;;;;;;;2.97;2.23;;;23.10;44.40;;;;;;5065284;28;20425;-83
2022/04/19 14:14:57;;;;;;;2.10;1.90;;;22.00;42.30;;;;;;5037856;28;20428;-85
2022/04/19 14:17:43;;;;;;;2.23;2.03;;;20.20;45.10;;;;;;5066557;28;20439;-85
2022/04/19 14:20:28;;;;;;;3.63;3.33;;;20.60;44.30;;;;;;5080510;28;20428;-84
2022/04/19 14:23:12;;;;;;;4.33;1.90;;;20.20;45.00;;;;;;5082751;28;20464;-85
2022/04/19 14:25:58;;;;;;;1.90;1.80;;;21.00;45.30;;;;;;5051841;28;20428;-84
2022/04/19 14:34:40;;;;;;;3.77;1.80;;;23.30;45.30;;;;;;5040481;28;20550;-82
2022/04/19 14:37:25;;;;;;;6.10;4.90;;;21.00;43.30;;;;;;5039997;28;20449;-85
2022/04/19 14:40:10;;;;;;;2.63;2.10;;;20.60;43.90;;;;;;5010300;28;20477;-82
2022/04/19 14:42:55;;;;;;;2.07;1.87;;;19.40;44.40;;;;;;5024096;28;20485;-84
2022/04/19 14:45:40;;;;;;;4.70;2.57;;;20.20;46.40;;;;;;5016120;28;20432;-84
2022/04/19 14:48:26;;;;;;;2.83;2.20;;;19.90;48.20;;;;;;5037921;28;20514;-83
2022/04/19 14:54:10;;;;;;;3.70;2.03;;;20.70;45.40;;;;;;5027128;28;20532;-84
2022/04/19 14:56:55;;;;;;;3.13;2.00;;;21.90;45.70;;;;;;5023358;28;20429;-82
2022/04/19 14:59:41;;;;;;;2.10;2.00;;;21.90;46.40;;;;;;5038306;28;20453;-83
2022/04/19 15:02:27;;;;;;;2.13;2.03;;;20.60;44.90;;;;;;5033754;28;20998;-83
2022/04/19 15:05:11;;;;;;;1.90;1.80;;;20.30;44.70;;;;;;5036880;28;21023;-84
2022/04/19 15:07:57;;;;;;;2.40;2.10;;;20.00;48.50;;;;;;5031060;28;20425;-84
2022/04/19 15:10:42;;;;;;;1.90;1.80;;;20.40;47.30;;;;;;5018354;28;20521;-84
2022/04/19 15:13:27;;;;;;;2.60;2.00;;;21.10;47.00;;;;;;5045043;28;20509;-83
2022/04/19 15:16:12;;;;;;;2.07;1.90;;;20.40;46.40;;;;;;5043625;28;20481;-84
2022/04/19 15:18:56;;;;;;;2.00;1.90;;;20.40;48.30;;;;;;5020124;28;20497;-86
2022/04/19 15:21:42;;;;;;;3.00;2.07;;;19.60;47.70;;;;;;5067995;28;20436;-84
2022/04/19 15:24:27;;;;;;;1.80;1.70;;;20.20;48.30;;;;;;5058165;28;20537;-85
2022/04/19 15:27:11;;;;;;;3.27;2.10;;;20.50;49.00;;;;;;5054920;28;20436;-83